Time;durP1;ratioP1;P1;durP2;ratioP2;P2;SDS_P1;SDS_P2;PMS_P1;PMS_P2;Temp;Humidity;BMP_temperature;BMP_pressure;BME280_temperature;BME280_humidity;BME280_pressure;Samples;Min_cycle;Max_cycle;Signal;HPM_P1;HPM_P2
2022/12/14 02:34:02;;;;;;;8.65;4.95;;;;;;;;;;1819353;77;22073;-75
2022/12/14 02:36:40;;;;;;;6.50;4.37;;;;;;;;;;1689404;83;20969;-75
2022/12/14 02:39:13;;;;;;;6.37;4.30;;;;;;;;;;1726082;82;21014;-74
2022/12/14 02:41:42;;;;;;;6.58;4.03;;;;;;;;;;1735858;82;21501;-75
2022/12/14 02:44:23;;;;;;;8.98;4.65;;;;;;;;;;1729290;82;21021;-77
2022/12/14 02:46:51;;;;;;;7.58;4.53;;;;;;;;;;1743995;82;21101;-77
2022/12/14 02:49:22;;;;;;;7.72;4.58;;;;;;;;;;1723940;81;20981;-75
2022/12/14 02:51:50;;;;;;;6.90;4.05;;;;;;;;;;1730169;82;21037;-75
2022/12/14 02:54:22;;;;;;;6.92;3.95;;;;;;;;;;1716676;82;21104;-77
2022/12/14 02:56:50;;;;;;;6.50;4.55;;;;;;;;;;1729931;83;21073;-76
2022/12/14 02:59:16;;;;;;;6.75;4.25;;;;;;;;;;1712521;83;21062;-77
2022/12/14 03:01:42;;;;;;;7.65;4.10;;;;;;;;;;1720881;83;21551;-76
2022/12/14 03:04:08;;;;;;;7.90;4.30;;;;;;;;;;1727732;83;21099;-75
2022/12/14 03:06:34;;;;;;;9.33;5.03;;;;;;;;;;1714425;84;21018;-75
2022/12/14 03:09:02;;;;;;;9.18;4.60;;;;;;;;;;1722055;82;21088;-75
2022/12/14 03:11:36;;;;;;;8.28;4.62;;;;;;;;;;1715628;82;21069;-75
2022/12/14 03:14:04;;;;;;;9.50;5.08;;;;;;;;;;1727673;83;21531;-75
2022/12/14 03:16:32;;;;;;;8.98;4.83;;;;;;;;;;1735500;82;22090;-75
2022/12/14 03:19:06;;;;;;;10.90;5.33;;;;;;;;;;1715004;82;21104;-76
2022/12/14 03:21:36;;;;;;;11.08;5.20;;;;;;;;;;1713642;84;21595;-75
2022/12/14 03:24:07;;;;;;;8.98;5.65;;;;;;;;;;1714266;84;21013;-75
2022/12/14 03:26:33;;;;;;;12.10;5.60;;;;;;;;;;1714313;84;21587;-76
2022/12/14 03:29:01;;;;;;;11.75;5.53;;;;;;;;;;1721655;82;21061;-75
2022/12/14 03:31:32;;;;;;;9.73;5.37;;;;;;;;;;1735018;82;21520;-76
2022/12/14 03:33:59;;;;;;;10.13;5.78;;;;;;;;;;1684774;84;21579;-76
2022/12/14 03:36:28;;;;;;;13.03;6.25;;;;;;;;;;1715335;84;21512;-76
2022/12/14 03:38:54;;;;;;;10.05;5.55;;;;;;;;;;1715304;82;21029;-75
2022/12/14 03:41:41;;;;;;;10.58;5.50;;;;;;;;;;1756618;81;21032;-76
2022/12/14 03:44:09;;;;;;;8.75;5.22;;;;;;;;;;1753807;82;21520;-75
2022/12/14 03:46:36;;;;;;;12.28;5.70;;;;;;;;;;1753492;81;21091;-75
2022/12/14 03:49:10;;;;;;;9.85;5.62;;;;;;;;;;1753794;81;21619;-76
2022/12/14 03:51:38;;;;;;;10.40;5.12;;;;;;;;;;1751826;82;21036;-75
2022/12/14 03:54:06;;;;;;;10.00;6.42;;;;;;;;;;1761202;81;21381;-76
2022/12/14 03:56:34;;;;;;;9.25;5.72;;;;;;;;;;1762892;81;20954;-77
2022/12/14 03:59:05;;;;;;;11.93;6.08;;;;;;;;;;1753019;80;20985;-75
2022/12/14 04:01:36;;;;;;;9.43;5.85;;;;;;;;;;1766886;81;21024;-76
2022/12/14 04:04:03;;;;;;;9.28;5.28;;;;;;;;;;1766384;81;21079;-76
2022/12/14 04:06:32;;;;;;;10.50;5.83;;;;;;;;;;1766711;81;21496;-75
2022/12/14 04:09:02;;;;;;;9.58;5.42;;;;;;;;;;1757540;81;21037;-75
2022/12/14 04:19:55;;;;;;;9.25;6.05;;;;;;;;;;1753915;81;21052;-76
2022/12/14 04:22:22;;;;;;;8.68;6.03;;;;;;;;;;1753400;82;21072;-76
2022/12/14 04:27:46;;;;;;;14.45;7.30;;;;;;;;;;1752921;81;21075;-76
2022/12/14 04:30:12;;;;;;;14.65;7.47;;;;;;;;;;1756464;81;21557;-76
2022/12/14 04:32:39;;;;;;;13.65;7.58;;;;;;;;;;1753341;81;21108;-75
2022/12/14 04:35:08;;;;;;;14.87;7.47;;;;;;;;;;1748173;82;21060;-75
2022/12/14 04:37:34;;;;;;;11.08;6.42;;;;;;;;;;1711557;84;21535;-77
2022/12/14 04:40:09;;;;;;;10.23;6.40;;;;;;;;;;1707110;83;21020;-75
2022/12/14 04:42:37;;;;;;;8.48;6.10;;;;;;;;;;1744152;81;21033;-75
2022/12/14 04:45:05;;;;;;;9.08;6.10;;;;;;;;;;1746664;81;21083;-75
2022/12/14 04:47:32;;;;;;;8.90;5.17;;;;;;;;;;1745278;81;21005;-75
2022/12/14 04:50:00;;;;;;;9.43;5.62;;;;;;;;;;1743347;81;21013;-75
2022/12/14 04:52:28;;;;;;;8.18;5.03;;;;;;;;;;1742722;81;21015;-76
2022/12/14 04:54:59;;;;;;;8.25;4.75;;;;;;;;;;1746355;81;21045;-76
2022/12/14 04:57:27;;;;;;;7.97;5.37;;;;;;;;;;1743344;81;21052;-76
2022/12/14 04:59:53;;;;;;;11.83;5.58;;;;;;;;;;1744430;81;21029;-75
2022/12/14 05:02:39;;;;;;;8.95;5.03;;;;;;;;;;1749800;81;21048;-75
2022/12/14 05:05:07;;;;;;;11.48;6.45;;;;;;;;;;1766404;81;21011;-76
2022/12/14 05:07:35;;;;;;;9.48;6.47;;;;;;;;;;1749390;81;21092;-75
2022/12/14 05:10:16;;;;;;;12.13;6.90;;;;;;;;;;1752968;81;21056;-77
2022/12/14 05:12:43;;;;;;;12.65;6.80;;;;;;;;;;1742018;81;21076;-75
2022/12/14 05:15:17;;;;;;;13.10;6.92;;;;;;;;;;1749094;81;21081;-76
2022/12/14 05:17:43;;;;;;;9.88;5.00;;;;;;;;;;1738274;82;21092;-77
2022/12/14 05:20:12;;;;;;;12.82;7.03;;;;;;;;;;1752079;81;20989;-75
2022/12/14 05:22:38;;;;;;;10.65;5.58;;;;;;;;;;1747846;82;21491;-77
2022/12/14 05:25:05;;;;;;;11.65;5.87;;;;;;;;;;1758345;81;21032;-75
2022/12/14 05:27:32;;;;;;;9.33;5.60;;;;;;;;;;1750176;81;20985;-75
2022/12/14 05:29:58;;;;;;;7.83;5.22;;;;;;;;;;1747886;82;21033;-77
2022/12/14 05:32:25;;;;;;;9.28;4.80;;;;;;;;;;1748971;81;21116;-75
2022/12/14 05:34:51;;;;;;;11.53;5.62;;;;;;;;;;1754946;81;21060;-76
2022/12/14 05:37:17;;;;;;;8.00;4.95;;;;;;;;;;1753565;82;21067;-75
2022/12/14 05:39:43;;;;;;;9.80;5.20;;;;;;;;;;1751723;81;21064;-76
2022/12/14 05:42:09;;;;;;;10.05;5.20;;;;;;;;;;1753798;81;21028;-75
2022/12/14 05:44:35;;;;;;;11.93;6.47;;;;;;;;;;1763001;81;21004;-75
2022/12/14 05:47:01;;;;;;;9.20;5.97;;;;;;;;;;1757376;81;21556;-75
2022/12/14 05:49:27;;;;;;;9.15;6.25;;;;;;;;;;1762139;81;21057;-74
2022/12/14 05:51:53;;;;;;;10.65;6.25;;;;;;;;;;1753130;82;21052;-75
2022/12/14 05:54:19;;;;;;;16.15;8.35;;;;;;;;;;1753735;81;21096;-75
2022/12/14 05:56:45;;;;;;;9.60;5.42;;;;;;;;;;1767976;81;21020;-75
2022/12/14 05:59:14;;;;;;;10.03;6.55;;;;;;;;;;1761705;81;21076;-76
2022/12/14 06:01:40;;;;;;;10.78;5.83;;;;;;;;;;1756330;81;21028;-76
2022/12/14 06:04:06;;;;;;;11.28;6.25;;;;;;;;;;1752843;81;21002;-76
2022/12/14 06:06:32;;;;;;;10.68;5.67;;;;;;;;;;1761995;80;20958;-76
2022/12/14 06:08:58;;;;;;;9.83;6.08;;;;;;;;;;1750586;80;21012;-75
2022/12/14 06:11:24;;;;;;;9.65;5.72;;;;;;;;;;1753168;82;20977;-74
2022/12/14 06:13:50;;;;;;;7.75;4.87;;;;;;;;;;1753315;80;20988;-77
2022/12/14 06:16:18;;;;;;;10.10;6.40;;;;;;;;;;1753140;80;21057;-76
2022/12/14 06:18:46;;;;;;;10.60;5.30;;;;;;;;;;1754209;80;21035;-76
2022/12/14 06:21:12;;;;;;;14.83;6.78;;;;;;;;;;1743549;80;21511;-75
2022/12/14 06:23:38;;;;;;;13.03;7.42;;;;;;;;;;1753129;81;21322;-75
2022/12/14 06:26:05;;;;;;;28.98;15.93;;;;;;;;;;1753313;81;21099;-76
2022/12/14 06:28:32;;;;;;;19.92;10.48;;;;;;;;;;1752396;80;21042;-77
2022/12/14 06:30:58;;;;;;;16.97;8.78;;;;;;;;;;1740816;80;21068;-75
2022/12/14 06:45:15;;;;;;;20.43;11.43;;;;;;;;;;1787343;78;28193;-70
2022/12/14 06:47:41;;;;;;;22.10;10.88;;;;;;;;;;1783861;79;21058;-71
2022/12/14 06:50:08;;;;;;;19.25;9.73;;;;;;;;;;1785311;79;21062;-71
2022/12/14 06:52:36;;;;;;;18.40;9.58;;;;;;;;;;1779366;79;21036;-70
2022/12/14 06:55:02;;;;;;;18.23;9.60;;;;;;;;;;1785914;78;21007;-68
2022/12/14 06:57:30;;;;;;;15.60;10.15;;;;;;;;;;1789856;79;21036;-69
2022/12/14 06:59:56;;;;;;;16.27;10.38;;;;;;;;;;1791040;79;21060;-69
2022/12/14 07:02:25;;;;;;;17.92;10.35;;;;;;;;;;1782864;78;22123;-70
2022/12/14 07:04:54;;;;;;;19.92;11.73;;;;;;;;;;1786657;79;21559;-71
2022/12/14 07:07:20;;;;;;;21.80;11.22;;;;;;;;;;1784138;78;21599;-71
2022/12/14 07:09:47;;;;;;;25.55;12.63;;;;;;;;;;1784890;79;21076;-71
2022/12/14 07:12:15;;;;;;;28.67;13.38;;;;;;;;;;1784159;80;21047;-70
2022/12/14 07:14:41;;;;;;;22.80;11.48;;;;;;;;;;1781739;78;21509;-70
2022/12/14 07:17:07;;;;;;;19.75;10.38;;;;;;;;;;1785900;79;22116;-70
2022/12/14 07:19:34;;;;;;;20.27;10.95;;;;;;;;;;1785249;78;21544;-69
2022/12/14 07:22:03;;;;;;;19.62;10.00;;;;;;;;;;1786635;78;21527;-71
2022/12/14 07:24:29;;;;;;;15.15;8.75;;;;;;;;;;1781436;80;21040;-71
2022/12/14 07:26:55;;;;;;;16.60;9.08;;;;;;;;;;1786628;78;21020;-71
2022/12/14 07:29:22;;;;;;;15.80;8.18;;;;;;;;;;1783620;78;21036;-68
2022/12/14 07:31:48;;;;;;;12.58;7.10;;;;;;;;;;1761890;81;21560;-69
2022/12/14 07:34:15;;;;;;;18.23;8.90;;;;;;;;;;1790026;78;21083;-69
2022/12/14 07:36:42;;;;;;;10.13;5.87;;;;;;;;;;1819100;79;20977;-70
2022/12/14 07:39:12;;;;;;;10.08;5.72;;;;;;;;;;1822911;78;21024;-71
2022/12/14 07:41:38;;;;;;;11.93;6.67;;;;;;;;;;1821126;77;21001;-69
2022/12/14 07:44:04;;;;;;;14.83;8.10;;;;;;;;;;1813270;79;21548;-70
2022/12/14 07:46:31;;;;;;;12.13;5.90;;;;;;;;;;1807446;79;21892;-70
2022/12/14 07:49:11;;;;;;;10.80;6.50;;;;;;;;;;1792911;78;22152;-68
2022/12/14 07:51:40;;;;;;;8.98;5.20;;;;;;;;;;1805593;78;21227;-70
2022/12/14 07:54:06;;;;;;;10.03;5.90;;;;;;;;;;1828022;77;21500;-69
2022/12/14 07:56:33;;;;;;;11.60;6.20;;;;;;;;;;1822679;77;21043;-71
2022/12/14 07:59:00;;;;;;;11.88;6.78;;;;;;;;;;1823565;77;21023;-71
2022/12/14 08:01:29;;;;;;;10.95;6.92;;;;;;;;;;1818573;77;21028;-71
2022/12/14 08:03:57;;;;;;;9.95;6.50;;;;;;;;;;1819996;77;21017;-71
2022/12/14 08:06:23;;;;;;;10.88;6.20;;;;;;;;;;1820902;77;21023;-71
2022/12/14 08:08:50;;;;;;;11.33;5.75;;;;;;;;;;1812134;77;21061;-70
2022/12/14 08:11:16;;;;;;;10.25;6.35;;;;;;;;;;1814983;78;21500;-70
2022/12/14 08:13:42;;;;;;;11.50;6.20;;;;;;;;;;1824107;77;21517;-71
2022/12/14 08:16:11;;;;;;;11.20;6.15;;;;;;;;;;1823968;78;20988;-70
2022/12/14 08:18:37;;;;;;;10.68;6.25;;;;;;;;;;1821198;77;20995;-70
2022/12/14 08:21:03;;;;;;;10.08;6.53;;;;;;;;;;1822597;77;21044;-70
2022/12/14 08:23:30;;;;;;;14.87;8.48;;;;;;;;;;1823942;77;20988;-69
2022/12/14 08:25:57;;;;;;;13.18;6.67;;;;;;;;;;1815147;77;21014;-69
2022/12/14 08:28:24;;;;;;;12.40;6.67;;;;;;;;;;1823737;77;21440;-68
2022/12/14 08:30:51;;;;;;;13.13;6.78;;;;;;;;;;1824335;78;20951;-68
2022/12/14 08:33:17;;;;;;;14.20;6.75;;;;;;;;;;1814443;77;20973;-69
2022/12/14 08:35:45;;;;;;;14.85;8.03;;;;;;;;;;1823767;79;21072;-69
2022/12/14 08:38:12;;;;;;;11.93;6.72;;;;;;;;;;1812045;78;20933;-69
2022/12/14 08:40:38;;;;;;;11.40;7.10;;;;;;;;;;1810273;78;21039;-68
2022/12/14 08:43:04;;;;;;;11.48;7.03;;;;;;;;;;1812084;79;21005;-69
2022/12/14 08:45:31;;;;;;;14.07;7.55;;;;;;;;;;1812532;78;21039;-69
2022/12/14 08:47:58;;;;;;;12.95;6.83;;;;;;;;;;1803650;79;21083;-68
2022/12/14 08:50:24;;;;;;;11.63;6.75;;;;;;;;;;1813252;78;21450;-69
2022/12/14 08:52:51;;;;;;;11.48;6.12;;;;;;;;;;1813096;78;21526;-69
2022/12/14 08:55:20;;;;;;;14.03;6.30;;;;;;;;;;1802753;78;21073;-69
2022/12/14 08:57:46;;;;;;;12.70;6.10;;;;;;;;;;1806937;79;21554;-68
2022/12/14 09:00:14;;;;;;;13.30;7.37;;;;;;;;;;1804366;78;21050;-68
2022/12/14 09:02:40;;;;;;;13.35;6.97;;;;;;;;;;1812254;78;21513;-68
2022/12/14 09:05:06;;;;;;;12.58;7.15;;;;;;;;;;1812935;78;21591;-68
2022/12/14 09:07:32;;;;;;;12.58;6.60;;;;;;;;;;1815029;78;21303;-70
2022/12/14 09:09:59;;;;;;;11.43;6.37;;;;;;;;;;1797433;79;20963;-73
2022/12/14 09:12:25;;;;;;;11.63;6.62;;;;;;;;;;1787559;79;21083;-71
2022/12/14 09:14:51;;;;;;;11.08;6.20;;;;;;;;;;1821676;78;21013;-70
2022/12/14 09:17:17;;;;;;;10.82;6.45;;;;;;;;;;1833141;76;22193;-69
2022/12/14 09:19:43;;;;;;;10.15;6.08;;;;;;;;;;1838844;78;21511;-69
2022/12/14 09:22:09;;;;;;;10.40;6.28;;;;;;;;;;1838104;78;20976;-71
2022/12/14 09:24:35;;;;;;;9.20;5.95;;;;;;;;;;1833315;78;20984;-70
2022/12/14 09:27:02;;;;;;;10.85;5.47;;;;;;;;;;1829899;78;21035;-71
2022/12/14 09:29:28;;;;;;;8.63;4.80;;;;;;;;;;1829348;76;21041;-71
2022/12/14 09:31:56;;;;;;;8.60;5.83;;;;;;;;;;1835474;76;21039;-71
2022/12/14 09:34:23;;;;;;;10.05;5.60;;;;;;;;;;1831660;76;21078;-69
2022/12/14 09:36:49;;;;;;;8.20;5.35;;;;;;;;;;1831556;76;21046;-70
2022/12/14 09:39:17;;;;;;;9.48;5.90;;;;;;;;;;1830557;76;21513;-71
2022/12/14 09:41:56;;;;;;;11.12;6.28;;;;;;;;;;1829825;76;21008;-68
2022/12/14 09:44:25;;;;;;;11.70;6.20;;;;;;;;;;1828133;78;21035;-71
2022/12/14 09:47:12;;;;;;;12.55;6.80;;;;;;;;;;1829618;78;21004;-71
2022/12/14 09:49:56;;;;;;;11.15;6.65;;;;;;;;;;1837095;78;21019;-70
2022/12/14 09:52:40;;;;;;;11.50;6.17;;;;;;;;;;1833261;78;21008;-71
2022/12/14 09:55:09;;;;;;;11.88;6.55;;;;;;;;;;1836494;78;21008;-69
2022/12/14 09:57:36;;;;;;;10.95;5.97;;;;;;;;;;1835801;78;21003;-69
2022/12/14 10:00:03;;;;;;;11.03;6.97;;;;;;;;;;1837407;78;21012;-69
2022/12/14 10:02:50;;;;;;;13.58;6.78;;;;;;;;;;1829271;78;21028;-69
2022/12/14 10:05:35;;;;;;;14.60;7.10;;;;;;;;;;1837868;78;21032;-68
2022/12/14 10:08:12;;;;;;;10.70;6.03;;;;;;;;;;1822823;78;21019;-72
2022/12/14 10:10:40;;;;;;;10.58;5.78;;;;;;;;;;1833226;76;21101;-70
2022/12/14 10:13:11;;;;;;;10.95;6.12;;;;;;;;;;1831275;78;21546;-70
2022/12/14 10:15:39;;;;;;;10.08;5.85;;;;;;;;;;1838218;78;20993;-68
2022/12/14 10:18:18;;;;;;;8.50;5.72;;;;;;;;;;1836604;78;21091;-68
2022/12/14 10:20:57;;;;;;;11.75;6.55;;;;;;;;;;1834170;78;21030;-69
2022/12/14 10:23:24;;;;;;;16.35;9.03;;;;;;;;;;1824744;78;21059;-68
2022/12/14 10:25:54;;;;;;;10.38;6.85;;;;;;;;;;1830769;78;22006;-68
2022/12/14 10:28:28;;;;;;;11.28;6.35;;;;;;;;;;1827464;78;21021;-68
2022/12/14 10:30:56;;;;;;;10.15;6.17;;;;;;;;;;1829489;78;21708;-70
2022/12/14 10:33:24;;;;;;;10.15;7.03;;;;;;;;;;1835334;76;21018;-70
2022/12/14 10:35:51;;;;;;;14.15;7.92;;;;;;;;;;1830434;78;21059;-70
2022/12/14 10:38:19;;;;;;;12.82;7.12;;;;;;;;;;1828673;78;21007;-70
2022/12/14 10:40:47;;;;;;;13.83;7.67;;;;;;;;;;1832125;78;22213;-68
2022/12/14 10:43:28;;;;;;;13.88;7.53;;;;;;;;;;1810047;78;21553;-68
2022/12/14 10:46:05;;;;;;;14.47;7.25;;;;;;;;;;1802293;77;21047;-68
2022/12/14 10:48:36;;;;;;;16.97;8.33;;;;;;;;;;1835446;77;21027;-69
2022/12/14 10:51:07;;;;;;;16.67;7.87;;;;;;;;;;1805255;77;21027;-69
2022/12/14 10:53:38;;;;;;;16.02;9.15;;;;;;;;;;1832300;77;21025;-70
2022/12/14 10:56:07;;;;;;;12.90;7.40;;;;;;;;;;1837095;77;21043;-70
2022/12/14 10:58:34;;;;;;;15.53;9.20;;;;;;;;;;1838410;76;21057;-69
2022/12/14 11:01:00;;;;;;;15.98;8.83;;;;;;;;;;1796684;79;21011;-68
2022/12/14 11:03:27;;;;;;;11.30;6.78;;;;;;;;;;1809272;79;21015;-69
2022/12/14 11:06:06;;;;;;;12.47;6.87;;;;;;;;;;1817034;78;21575;-69
2022/12/14 11:08:46;;;;;;;12.07;7.33;;;;;;;;;;1826242;78;20989;-69
2022/12/14 11:11:14;;;;;;;16.02;7.60;;;;;;;;;;1873475;76;21343;-69
2022/12/14 11:13:42;;;;;;;12.82;7.62;;;;;;;;;;1829711;78;21049;-70
2022/12/14 11:16:16;;;;;;;13.62;7.20;;;;;;;;;;1836344;78;21007;-68
2022/12/14 11:18:45;;;;;;;12.85;7.92;;;;;;;;;;1833753;78;22041;-69
2022/12/14 11:34:26;;;;;;;13.93;9.00;;;;;;;;;;1855223;75;29092;-68
2022/12/14 11:36:52;;;;;;;16.20;8.95;;;;;;;;;;1832991;78;21000;-69
2022/12/14 11:39:23;;;;;;;13.22;8.03;;;;;;;;;;1824782;78;20972;-68
2022/12/14 11:42:00;;;;;;;11.25;6.15;;;;;;;;;;1821904;78;21035;-69
2022/12/14 11:44:28;;;;;;;10.15;6.25;;;;;;;;;;1808373;78;21034;-70
2022/12/14 11:46:59;;;;;;;11.40;7.35;;;;;;;;;;1807884;78;21007;-69
2022/12/14 11:49:27;;;;;;;10.18;6.85;;;;;;;;;;1809608;78;21034;-69
2022/12/14 11:51:54;;;;;;;8.20;6.28;;;;;;;;;;1783786;80;20998;-68
2022/12/14 11:54:20;;;;;;;10.80;7.42;;;;;;;;;;1809549;78;20999;-68
2022/12/14 11:56:48;;;;;;;9.73;5.58;;;;;;;;;;1779209;78;21061;-69
2022/12/14 11:59:14;;;;;;;9.15;6.45;;;;;;;;;;1790819;80;20965;-67
2022/12/14 12:01:41;;;;;;;9.70;6.25;;;;;;;;;;1821847;78;20957;-70
2022/12/14 12:04:10;;;;;;;9.93;5.08;;;;;;;;;;1822964;77;20968;-68
2022/12/14 12:06:36;;;;;;;9.15;5.83;;;;;;;;;;1788676;78;21058;-69
2022/12/14 12:09:06;;;;;;;7.53;4.87;;;;;;;;;;1810650;77;21077;-70
2022/12/14 12:11:32;;;;;;;7.92;4.53;;;;;;;;;;1813594;77;21031;-69
2022/12/14 12:14:00;;;;;;;9.68;5.87;;;;;;;;;;1797843;78;20961;-69
2022/12/14 12:16:27;;;;;;;11.83;5.25;;;;;;;;;;1800257;78;21046;-69
2022/12/14 12:19:00;;;;;;;10.75;6.10;;;;;;;;;;1804720;78;21043;-68
2022/12/14 12:21:27;;;;;;;9.90;5.95;;;;;;;;;;1804815;78;20985;-68
2022/12/14 12:24:12;;;;;;;9.93;6.22;;;;;;;;;;1826063;77;21008;-70
2022/12/14 12:26:40;;;;;;;14.23;8.18;;;;;;;;;;1828360;78;21623;-68
2022/12/14 12:29:20;;;;;;;11.03;7.67;;;;;;;;;;1832106;77;21057;-69
2022/12/14 12:31:51;;;;;;;14.18;7.22;;;;;;;;;;1831519;77;20968;-69
2022/12/14 12:34:25;;;;;;;7.65;4.85;;;;;;;;;;1792186;78;21128;-69
2022/12/14 12:36:51;;;;;;;8.78;5.25;;;;;;;;;;1790745;78;21020;-69
2022/12/14 12:39:20;;;;;;;11.90;6.78;;;;;;;;;;1795202;78;21040;-68
2022/12/14 12:41:52;;;;;;;11.28;5.85;;;;;;;;;;1799341;79;21475;-69
2022/12/14 12:44:24;;;;;;;11.57;6.15;;;;;;;;;;1797787;78;21035;-68
2022/12/14 12:47:03;;;;;;;9.05;5.53;;;;;;;;;;1812090;78;20997;-69
2022/12/14 12:49:29;;;;;;;8.63;5.42;;;;;;;;;;1793137;78;21027;-68
2022/12/14 12:51:58;;;;;;;10.88;6.30;;;;;;;;;;1787025;78;21028;-73
2022/12/14 12:54:26;;;;;;;10.63;6.15;;;;;;;;;;1785272;78;21346;-73
2022/12/14 12:56:52;;;;;;;10.40;5.72;;;;;;;;;;1778917;78;21019;-73
2022/12/14 12:59:20;;;;;;;9.40;5.87;;;;;;;;;;1783872;78;21005;-71
2022/12/14 13:01:51;;;;;;;8.58;5.45;;;;;;;;;;1800967;78;21085;-69
2022/12/14 13:04:26;;;;;;;13.60;5.60;;;;;;;;;;1794281;78;21589;-67
2022/12/14 13:07:11;;;;;;;10.90;5.85;;;;;;;;;;1798512;78;20964;-68
2022/12/14 13:09:41;;;;;;;11.63;5.67;;;;;;;;;;1798888;78;21517;-68
2022/12/14 13:12:13;;;;;;;14.47;7.42;;;;;;;;;;1792118;78;21041;-68
2022/12/14 13:14:41;;;;;;;11.03;6.20;;;;;;;;;;1799701;78;21058;-68
2022/12/14 13:17:08;;;;;;;9.90;5.37;;;;;;;;;;1800653;78;22118;-68
2022/12/14 13:19:37;;;;;;;9.80;5.75;;;;;;;;;;1790602;78;21108;-68
2022/12/14 13:22:05;;;;;;;14.00;7.15;;;;;;;;;;1798576;78;21026;-69
2022/12/14 13:24:31;;;;;;;10.55;6.75;;;;;;;;;;1795764;78;21542;-69
2022/12/14 13:27:11;;;;;;;10.40;6.25;;;;;;;;;;1799172;78;21575;-69
2022/12/14 13:29:51;;;;;;;10.15;6.00;;;;;;;;;;1794318;78;21580;-67
2022/12/14 13:32:28;;;;;;;11.43;6.40;;;;;;;;;;1796003;78;21020;-69
2022/12/14 13:34:58;;;;;;;8.20;5.50;;;;;;;;;;1795744;78;21037;-68
2022/12/14 13:37:43;;;;;;;11.10;6.08;;;;;;;;;;1798990;78;21080;-68
2022/12/14 13:40:24;;;;;;;11.95;6.85;;;;;;;;;;1795011;78;20966;-68
2022/12/14 13:42:52;;;;;;;14.53;8.08;;;;;;;;;;1795509;78;20962;-69
2022/12/14 13:45:22;;;;;;;22.07;12.40;;;;;;;;;;1793703;78;21083;-68
2022/12/14 13:47:52;;;;;;;25.80;12.95;;;;;;;;;;1797626;78;20969;-68
2022/12/14 13:50:21;;;;;;;22.60;11.85;;;;;;;;;;1795161;78;21044;-69
2022/12/14 13:52:47;;;;;;;22.35;12.07;;;;;;;;;;1737870;81;21051;-69
2022/12/14 13:55:18;;;;;;;33.28;14.50;;;;;;;;;;1760132;81;21610;-67
2022/12/14 13:57:44;;;;;;;28.17;14.87;;;;;;;;;;1730955;81;21608;-68
2022/12/14 14:00:12;;;;;;;24.82;13.30;;;;;;;;;;1730374;82;21051;-70
2022/12/14 14:02:38;;;;;;;26.23;13.88;;;;;;;;;;1738327;81;21508;-68
2022/12/14 14:05:17;;;;;;;23.38;12.68;;;;;;;;;;1737827;81;21057;-68
2022/12/14 14:07:52;;;;;;;25.68;12.95;;;;;;;;;;1722888;81;21056;-68
2022/12/14 14:10:30;;;;;;;24.47;12.37;;;;;;;;;;1735549;81;21024;-67
2022/12/14 14:12:57;;;;;;;18.37;11.15;;;;;;;;;;1737593;81;21048;-67
2022/12/14 14:15:31;;;;;;;26.65;12.15;;;;;;;;;;1707073;83;21111;-69
2022/12/14 14:18:02;;;;;;;25.30;13.05;;;;;;;;;;1722566;82;21064;-67
2022/12/14 14:20:35;;;;;;;22.73;11.08;;;;;;;;;;1726294;82;21035;-69
2022/12/14 14:23:15;;;;;;;30.68;12.53;;;;;;;;;;1738591;81;21039;-68
2022/12/14 14:25:45;;;;;;;33.92;15.00;;;;;;;;;;1749894;81;21399;-70
2022/12/14 14:28:12;;;;;;;28.75;12.95;;;;;;;;;;1739804;81;21064;-68
2022/12/14 14:30:42;;;;;;;36.53;16.60;;;;;;;;;;1746896;80;21479;-69
2022/12/14 14:33:27;;;;;;;39.70;16.73;;;;;;;;;;1735950;81;20989;-68
2022/12/14 14:36:08;;;;;;;40.88;18.20;;;;;;;;;;1768999;80;21785;-68
2022/12/14 14:38:35;;;;;;;37.00;17.00;;;;;;;;;;1751297;80;21581;-68
2022/12/14 14:41:02;;;;;;;44.93;18.70;;;;;;;;;;1740617;81;21019;-68
2022/12/14 14:43:31;;;;;;;44.40;19.92;;;;;;;;;;1764748;80;21056;-70
2022/12/14 14:46:01;;;;;;;33.00;19.87;;;;;;;;;;1734958;81;21483;-71
2022/12/14 14:48:35;;;;;;;35.23;17.48;;;;;;;;;;1738336;82;21089;-71
2022/12/14 14:51:13;;;;;;;28.80;14.45;;;;;;;;;;1759011;80;21066;-70
2022/12/14 14:53:39;;;;;;;25.35;12.90;;;;;;;;;;1747741;82;21067;-70
2022/12/14 14:56:24;;;;;;;24.23;12.13;;;;;;;;;;1779271;79;21018;-68
2022/12/14 15:11:42;;;;;;;23.55;13.93;;;;;;;;;;1767574;78;28191;-76
2022/12/14 15:14:29;;;;;;;27.60;13.32;;;;;;;;;;1766305;80;21068;-73
2022/12/14 15:16:55;;;;;;;23.40;15.65;;;;;;;;;;1756514;80;21057;-74
2022/12/14 15:19:26;;;;;;;29.25;18.70;;;;;;;;;;1763614;80;21503;-76
2022/12/14 15:21:55;;;;;;;38.17;24.57;;;;;;;;;;1738527;80;21108;-73
2022/12/14 15:24:21;;;;;;;28.65;19.20;;;;;;;;;;1749745;81;21559;-74
2022/12/14 15:26:47;;;;;;;33.78;20.62;;;;;;;;;;1755927;80;21058;-74
2022/12/14 15:29:15;;;;;;;32.20;19.70;;;;;;;;;;1783274;80;21044;-76
2022/12/14 15:31:42;;;;;;;31.33;19.20;;;;;;;;;;1796640;80;20973;-73
2022/12/14 15:34:15;;;;;;;30.50;17.48;;;;;;;;;;1777800;79;21065;-73
2022/12/14 15:36:41;;;;;;;31.62;17.75;;;;;;;;;;1723261;83;21008;-73
2022/12/14 15:39:27;;;;;;;26.20;15.00;;;;;;;;;;1747986;81;21091;-74
2022/12/14 15:42:01;;;;;;;27.05;14.70;;;;;;;;;;1744922;81;21563;-75
2022/12/14 15:44:28;;;;;;;26.02;15.70;;;;;;;;;;1742846;81;20997;-73
2022/12/14 15:46:54;;;;;;;29.05;16.17;;;;;;;;;;1745904;81;21000;-73
2022/12/14 15:49:22;;;;;;;28.17;15.30;;;;;;;;;;1736655;81;21071;-74
2022/12/14 15:51:48;;;;;;;30.92;13.35;;;;;;;;;;1752168;80;21012;-74
2022/12/14 15:54:15;;;;;;;26.40;14.25;;;;;;;;;;1769019;80;21029;-76
2022/12/14 15:56:46;;;;;;;34.35;16.70;;;;;;;;;;1750663;81;21051;-74
2022/12/14 15:59:16;;;;;;;27.37;14.00;;;;;;;;;;1729928;81;21060;-75
2022/12/14 16:01:43;;;;;;;30.70;15.63;;;;;;;;;;1751191;80;21148;-73
2022/12/14 16:04:10;;;;;;;31.05;16.55;;;;;;;;;;1750310;80;21045;-72
2022/12/14 16:06:41;;;;;;;32.03;16.73;;;;;;;;;;1763509;80;21025;-77
2022/12/14 16:09:09;;;;;;;30.72;15.95;;;;;;;;;;1742093;82;21046;-71
2022/12/14 16:11:48;;;;;;;40.65;19.60;;;;;;;;;;1766881;79;21037;-70
2022/12/14 16:14:17;;;;;;;42.70;21.37;;;;;;;;;;1769370;79;21076;-70
2022/12/14 19:12:14;;;;;;;26.17;13.72;;;;;;;;;;1816601;77;22129;-73
2022/12/14 19:14:42;;;;;;;28.07;15.80;;;;;;;;;;1784104;79;21059;-73
2022/12/14 19:17:08;;;;;;;36.83;18.02;;;;;;;;;;1780324;79;21746;-73
2022/12/14 19:19:34;;;;;;;23.57;12.65;;;;;;;;;;1780957;79;21759;-73
2022/12/14 19:22:00;;;;;;;24.87;13.22;;;;;;;;;;1786858;79;21000;-73
2022/12/14 19:24:26;;;;;;;23.70;12.00;;;;;;;;;;1782861;79;21507;-73
2022/12/14 19:26:52;;;;;;;24.30;11.95;;;;;;;;;;1786284;79;20988;-73
2022/12/14 19:29:18;;;;;;;24.47;12.68;;;;;;;;;;1781352;79;21554;-75
2022/12/14 19:31:44;;;;;;;27.20;13.30;;;;;;;;;;1790244;79;21050;-75
2022/12/14 19:34:11;;;;;;;25.72;13.83;;;;;;;;;;1789445;79;21092;-73
2022/12/14 19:36:38;;;;;;;26.35;12.73;;;;;;;;;;1785120;79;21008;-75
2022/12/14 19:39:04;;;;;;;23.85;12.93;;;;;;;;;;1787578;79;21034;-75
2022/12/14 19:41:30;;;;;;;28.73;15.05;;;;;;;;;;1790636;79;21044;-73
2022/12/14 19:43:57;;;;;;;26.68;13.88;;;;;;;;;;1768696;79;21094;-73
2022/12/14 19:46:23;;;;;;;24.52;12.68;;;;;;;;;;1731544;82;21043;-73
2022/12/14 19:48:49;;;;;;;24.02;12.00;;;;;;;;;;1716502;82;21552;-73
2022/12/14 19:51:16;;;;;;;27.30;13.93;;;;;;;;;;1748981;82;21553;-73
2022/12/14 19:53:43;;;;;;;25.52;13.00;;;;;;;;;;1742831;80;21062;-73
2022/12/14 19:56:10;;;;;;;27.15;13.62;;;;;;;;;;1740223;82;21466;-71
2022/12/14 19:58:36;;;;;;;26.93;13.13;;;;;;;;;;1752468;82;21065;-72
2022/12/14 20:01:04;;;;;;;23.85;13.62;;;;;;;;;;1755792;80;21591;-72
2022/12/14 20:03:30;;;;;;;30.43;13.85;;;;;;;;;;1757404;79;21088;-72
2022/12/14 20:05:57;;;;;;;27.87;13.53;;;;;;;;;;1759516;79;21059;-72
2022/12/14 20:08:23;;;;;;;30.02;14.10;;;;;;;;;;1758758;79;20988;-72
2022/12/14 20:10:51;;;;;;;28.83;13.55;;;;;;;;;;1765153;79;21073;-72
2022/12/14 20:13:19;;;;;;;28.62;14.05;;;;;;;;;;1761821;79;21032;-73
2022/12/14 20:15:47;;;;;;;26.57;13.43;;;;;;;;;;1761310;79;21106;-73
2022/12/14 20:18:13;;;;;;;24.10;12.40;;;;;;;;;;1741164;81;21540;-74
2022/12/14 20:20:39;;;;;;;30.97;15.55;;;;;;;;;;1732774;82;21044;-73
2022/12/14 20:23:05;;;;;;;24.80;12.95;;;;;;;;;;1746778;81;21031;-73
2022/12/14 20:25:33;;;;;;;26.90;13.48;;;;;;;;;;1769713;80;21088;-72
2022/12/14 20:27:59;;;;;;;23.38;12.18;;;;;;;;;;1761715;80;21025;-72
2022/12/14 20:30:26;;;;;;;28.45;12.85;;;;;;;;;;1779251;80;21047;-76
2022/12/14 20:32:53;;;;;;;22.22;12.47;;;;;;;;;;1776999;80;21056;-73
2022/12/14 20:35:19;;;;;;;22.93;13.28;;;;;;;;;;1766415;79;21115;-74
2022/12/14 20:37:45;;;;;;;28.47;13.40;;;;;;;;;;1767620;80;21071;-74
2022/12/14 20:40:12;;;;;;;26.68;13.08;;;;;;;;;;1768482;80;21060;-76
2022/12/14 20:42:38;;;;;;;25.95;12.05;;;;;;;;;;1741404;82;21072;-76
2022/12/14 20:45:05;;;;;;;30.15;13.70;;;;;;;;;;1734627;81;21056;-75
2022/12/14 20:47:31;;;;;;;24.32;11.63;;;;;;;;;;1730096;82;21094;-75
2022/12/14 20:49:58;;;;;;;26.20;14.13;;;;;;;;;;1747486;80;21638;-75
2022/12/14 20:52:25;;;;;;;22.13;12.00;;;;;;;;;;1755082;81;21056;-75
2022/12/14 20:54:52;;;;;;;25.50;13.98;;;;;;;;;;1764966;81;21044;-75
2022/12/14 20:57:18;;;;;;;23.12;12.25;;;;;;;;;;1756495;81;21362;-75